Time;durP1;ratioP1;P1;durP2;ratioP2;P2;SDS_P1;SDS_P2;PMS_P1;PMS_P2;Temp;Humidity;BMP_temperature;BMP_pressure;BME280_temperature;BME280_humidity;BME280_pressure;Samples;Min_cycle;Max_cycle;Signal;HPM_P1;HPM_P2
2022/01/23 00:01:14;;;;;;;;;;;-0.50;99.90;;;;;;5110724;28;19925;-50
2022/01/23 00:03:45;;;;;;;;;;;-0.70;99.90;;;;;;5097553;28;20450;-51
2022/01/23 00:06:13;;;;;;;;;;;-0.80;99.90;;;;;;5094805;28;19924;-51
2022/01/23 00:08:40;;;;;;;;;;;-0.90;99.90;;;;;;5110055;28;19924;-50
2022/01/23 00:11:07;;;;;;;;;;;-0.90;99.90;;;;;;5115328;28;19924;-50
2022/01/23 00:17:13;;;;;;;;;;;-0.80;99.90;;;;;;5113941;27;20439;-50
2022/01/23 00:19:05;;;;;;;;;;;-0.80;99.90;;;;;;5113962;28;19965;-50
2022/01/23 00:21:34;;;;;;;;;;;-0.80;99.90;;;;;;5114827;28;20036;-50
2022/01/23 00:32:14;;;;;;;;;;;-0.90;99.90;;;;;;5102833;28;20399;-50
2022/01/23 00:34:40;;;;;;;;;;;-0.90;99.90;;;;;;5111958;28;19924;-50
2022/01/23 00:37:09;;;;;;;;;;;-0.90;99.90;;;;;;5113979;28;20023;-51
2022/01/23 00:39:35;;;;;;;;;;;-0.90;99.90;;;;;;5113909;28;20442;-51
2022/01/23 00:42:02;;;;;;;;;;;-1.00;99.90;;;;;;5113962;28;19943;-51
2022/01/23 00:44:29;;;;;;;;;;;-1.10;99.90;;;;;;5112678;28;19923;-50
2022/01/23 00:46:56;;;;;;;;;;;-1.20;99.90;;;;;;5113970;28;19930;-51
2022/01/23 00:49:25;;;;;;;;;;;-1.30;99.90;;;;;;5113351;28;19931;-51
2022/01/23 00:51:53;;;;;;;;;;;-1.30;99.90;;;;;;5113793;28;20019;-51
2022/01/23 00:54:22;;;;;;;;;;;-1.30;99.90;;;;;;5113961;28;19928;-51
2022/01/23 00:56:48;;;;;;;;;;;-1.30;99.90;;;;;;5113523;28;19928;-50
2022/01/23 00:59:16;;;;;;;;;;;-1.30;99.90;;;;;;5112991;28;19923;-50
2022/01/23 01:01:43;;;;;;;;;;;-1.30;99.90;;;;;;5109516;27;19981;-50
2022/01/23 01:04:10;;;;;;;;;;;-1.30;99.90;;;;;;5105413;28;19967;-51
2022/01/23 01:06:36;;;;;;;;;;;-1.30;99.90;;;;;;5103450;28;19970;-49
2022/01/23 01:09:06;;;;;;;;;;;-0.90;99.90;;;;;;5108742;28;20577;-50
2022/01/23 01:14:37;;;;;;;;;;;-1.10;99.90;;;;;;5088511;28;19939;-50
2022/01/23 01:17:11;;;;;;;;;;;-1.10;99.90;;;;;;5105482;28;19985;-50
2022/01/23 01:30:45;;;;;;;;;;;-1.60;99.90;;;;;;5116298;28;19946;-49
2022/01/23 01:33:22;;;;;;;;;;;-1.60;99.90;;;;;;5116579;28;19965;-50
2022/01/23 01:35:55;;;;;;;;;;;-1.70;99.90;;;;;;5113215;28;19923;-50
2022/01/23 01:38:21;;;;;;;;;;;-1.70;99.90;;;;;;5109660;28;20401;-50
2022/01/23 01:40:48;;;;;;;;;;;-1.70;99.90;;;;;;5113428;28;20015;-50
2022/01/23 01:43:16;;;;;;;;;;;-1.80;99.90;;;;;;5112431;28;19981;-50
2022/01/23 01:45:44;;;;;;;;;;;-1.80;99.90;;;;;;5103769;28;19978;-50
2022/01/23 01:48:15;;;;;;;;;;;-1.80;99.90;;;;;;5097294;28;19931;-50
2022/01/23 01:50:46;;;;;;;;;;;-1.90;99.90;;;;;;5113212;28;20022;-50
2022/01/23 01:53:13;;;;;;;;;;;-1.90;99.90;;;;;;5113173;28;19924;-50
2022/01/23 01:55:43;;;;;;;;;;;-1.90;99.90;;;;;;5112113;28;20381;-50
2022/01/23 01:58:32;;;;;;;;;;;-1.80;99.90;;;;;;5112847;28;20312;-50
2022/01/23 02:01:02;;;;;;;;;;;-1.50;99.90;;;;;;5098545;28;19955;-50
2022/01/23 02:09:05;;;;;;;;;;;-1.20;99.90;;;;;;5092312;28;20053;-50
2022/01/23 02:11:51;;;;;;;;;;;-1.30;99.90;;;;;;5092343;28;19924;-50
2022/01/23 02:14:31;;;;;;;;;;;-1.20;99.90;;;;;;5111324;28;19963;-50
2022/01/23 02:17:17;;;;;;;;;;;-1.30;99.90;;;;;;5109478;28;19923;-50
2022/01/23 02:22:48;;;;;;;;;;;-1.20;99.90;;;;;;5112814;28;19931;-50
2022/01/23 02:25:40;;;;;;;;;;;-1.30;99.90;;;;;;5092229;28;19924;-50
2022/01/23 02:52:55;;;;;;;;;;;-2.20;99.90;;;;;;5114520;28;19933;-50
2022/01/23 02:55:26;;;;;;;;;;;-2.20;99.90;;;;;;5106665;28;19964;-50
2022/01/23 02:57:56;;;;;;;;;;;-2.30;99.90;;;;;;5096976;28;20005;-50
2022/01/23 03:00:26;;;;;;;;;;;-2.30;99.90;;;;;;5095915;28;19989;-50
2022/01/23 03:03:01;;;;;;;;;;;-2.30;99.90;;;;;;5097622;28;19928;-50
2022/01/23 03:05:36;;;;;;;;;;;-2.30;99.90;;;;;;5115522;28;19931;-50
2022/01/23 03:08:19;;;;;;;;;;;-2.30;99.90;;;;;;5115874;28;20312;-50
2022/01/23 03:10:59;;;;;;;;;;;-2.40;99.90;;;;;;5116184;28;20053;-50
2022/01/23 03:13:45;;;;;;;;;;;-2.30;99.90;;;;;;5114135;28;20389;-50
2022/01/23 03:24:39;;;;;;;;;;;-2.20;99.90;;;;;;5115752;28;20400;-50
2022/01/23 03:27:27;;;;;;;;;;;-2.10;99.90;;;;;;5113100;28;20015;-50
2022/01/23 03:29:57;;;;;;;;;;;-1.90;99.90;;;;;;5102621;28;20465;-50
2022/01/23 03:32:31;;;;;;;;;;;-1.90;99.90;;;;;;5115443;28;19923;-50
2022/01/23 03:34:58;;;;;;;;;;;-1.80;99.90;;;;;;5115441;28;19954;-50
2022/01/23 03:37:25;;;;;;;;;;;-1.70;99.90;;;;;;5115148;28;19923;-50
2022/01/23 03:39:52;;;;;;;;;;;-1.60;99.90;;;;;;5115383;28;20343;-50
2022/01/23 03:42:20;;;;;;;;;;;-1.60;99.90;;;;;;5114179;28;19924;-50
2022/01/23 03:45:03;;;;;;;;;;;-1.60;99.90;;;;;;5114451;27;19932;-50
2022/01/23 03:47:37;;;;;;;;;;;-1.60;99.90;;;;;;5102907;28;19924;-50
2022/01/23 03:50:03;;;;;;;;;;;-1.70;99.90;;;;;;5112348;28;19953;-50
2022/01/23 03:52:30;;;;;;;;;;;-1.80;99.90;;;;;;5103020;28;20361;-50
2022/01/23 03:54:57;;;;;;;;;;;-1.80;99.90;;;;;;5110248;28;20347;-50
2022/01/23 03:57:25;;;;;;;;;;;-1.80;99.90;;;;;;5098687;28;19928;-50
2022/01/23 03:59:52;;;;;;;;;;;-1.80;99.90;;;;;;5102808;28;19977;-50
2022/01/23 04:02:18;;;;;;;;;;;-1.70;99.90;;;;;;5097287;28;19932;-50
2022/01/23 04:04:45;;;;;;;;;;;-1.70;99.90;;;;;;5097260;28;20339;-50
2022/01/23 04:07:15;;;;;;;;;;;-1.70;99.90;;;;;;5094583;28;19928;-50
2022/01/23 04:09:42;;;;;;;;;;;-1.80;99.90;;;;;;5094955;28;19930;-50
2022/01/23 04:12:12;;;;;;;;;;;-1.70;99.90;;;;;;5096223;28;20419;-50
2022/01/23 04:14:48;;;;;;;;;;;-1.70;99.90;;;;;;5094889;28;20279;-50
2022/01/23 04:18:03;;;;;;;;;;;-1.70;99.90;;;;;;5108898;28;20389;-50
2022/01/23 04:20:33;;;;;;;;;;;-1.60;99.90;;;;;;5113195;28;20389;-50
2022/01/23 04:33:58;;;;;;;;;;;-1.60;99.90;;;;;;5095274;28;19938;-50
2022/01/23 05:01:19;;;;;;;;;;;-2.20;99.90;;;;;;5071254;28;19931;-49
2022/01/23 05:04:09;;;;;;;;;;;-2.30;99.90;;;;;;5071704;28;19924;-50
2022/01/23 05:06:42;;;;;;;;;;;-2.30;99.90;;;;;;5071740;28;20374;-49
2022/01/23 05:09:09;;;;;;;;;;;-2.40;99.90;;;;;;5071516;28;20011;-49
2022/01/23 05:11:37;;;;;;;;;;;-2.40;99.90;;;;;;5071397;28;20503;-49
2022/01/23 05:14:04;;;;;;;;;;;-2.50;99.90;;;;;;5071603;28;19924;-49
2022/01/23 05:16:32;;;;;;;;;;;-2.50;99.90;;;;;;5071151;28;19924;-49
2022/01/23 05:19:02;;;;;;;;;;;-2.60;99.90;;;;;;5071448;28;19924;-49
2022/01/23 05:21:51;;;;;;;;;;;-2.60;99.90;;;;;;5071189;28;20579;-50
2022/01/23 05:24:22;;;;;;;;;;;-2.50;99.90;;;;;;5071633;28;19975;-49
2022/01/23 05:26:49;;;;;;;;;;;-2.50;99.90;;;;;;5070911;28;19925;-49
2022/01/23 05:29:16;;;;;;;;;;;-2.40;99.90;;;;;;5071440;28;19929;-49
2022/01/23 05:31:43;;;;;;;;;;;-2.40;99.90;;;;;;5070685;28;19974;-50
2022/01/23 05:34:11;;;;;;;;;;;-2.30;99.90;;;;;;5070612;28;19982;-48
2022/01/23 05:36:37;;;;;;;;;;;-2.10;99.90;;;;;;5071246;28;19993;-49
2022/01/23 05:39:04;;;;;;;;;;;-2.10;99.90;;;;;;5071059;28;19932;-50
2022/01/23 05:41:32;;;;;;;;;;;-2.00;99.90;;;;;;5066861;28;19936;-50
2022/01/23 05:43:59;;;;;;;;;;;-2.00;99.90;;;;;;5071090;28;19985;-49
2022/01/23 05:46:25;;;;;;;;;;;-1.90;99.90;;;;;;5070799;28;19924;-49
2022/01/23 05:48:52;;;;;;;;;;;-1.90;99.90;;;;;;5070290;28;20451;-49
2022/01/23 05:51:20;;;;;;;;;;;-1.80;99.90;;;;;;5070826;28;19985;-49
2022/01/23 05:53:47;;;;;;;;;;;-1.90;99.90;;;;;;5071096;28;19994;-50
2022/01/23 05:56:16;;;;;;;;;;;-1.80;99.90;;;;;;5070620;28;19933;-49
2022/01/23 05:58:43;;;;;;;;;;;-1.80;99.90;;;;;;5070689;28;19928;-49
2022/01/23 06:01:10;;;;;;;;;;;-1.80;99.90;;;;;;5070234;28;20588;-49
2022/01/23 06:03:36;;;;;;;;;;;-1.80;99.90;;;;;;5070945;28;19930;-50
2022/01/23 06:06:03;;;;;;;;;;;-1.70;99.90;;;;;;5070336;28;19932;-50
2022/01/23 06:08:32;;;;;;;;;;;-1.80;99.90;;;;;;5066351;28;20404;-49
2022/01/23 06:10:59;;;;;;;;;;;-1.80;99.90;;;;;;5071181;28;19924;-49
2022/01/23 06:13:26;;;;;;;;;;;-1.90;99.90;;;;;;5073235;28;20386;-49
2022/01/23 06:15:53;;;;;;;;;;;-2.00;99.90;;;;;;5075044;28;20329;-50
2022/01/23 06:18:21;;;;;;;;;;;-2.10;99.90;;;;;;5074825;28;20404;-50
2022/01/23 06:20:48;;;;;;;;;;;-2.20;99.90;;;;;;5070774;28;20376;-48
2022/01/23 06:23:15;;;;;;;;;;;-2.30;99.90;;;;;;5074377;28;19998;-49
2022/01/23 06:25:44;;;;;;;;;;;-2.30;99.90;;;;;;5075057;28;19972;-49
2022/01/23 06:28:11;;;;;;;;;;;-2.30;99.90;;;;;;5074604;28;19978;-50
2022/01/23 06:30:38;;;;;;;;;;;-2.30;99.90;;;;;;5074472;28;19928;-49
2022/01/23 06:33:05;;;;;;;;;;;-2.40;99.90;;;;;;5075315;28;19931;-48
2022/01/23 06:35:32;;;;;;;;;;;-2.40;99.90;;;;;;5074478;28;19931;-50
2022/01/23 06:37:59;;;;;;;;;;;-2.40;99.90;;;;;;5074045;28;19924;-48
2022/01/23 06:40:26;;;;;;;;;;;-2.30;99.90;;;;;;5070047;28;19925;-49
2022/01/23 06:42:54;;;;;;;;;;;-2.10;99.90;;;;;;5073085;28;19924;-49
2022/01/23 06:45:21;;;;;;;;;;;-2.00;99.90;;;;;;5072097;28;19924;-49
2022/01/23 06:47:47;;;;;;;;;;;-2.10;99.90;;;;;;5072382;28;20479;-49
2022/01/23 06:50:14;;;;;;;;;;;-2.00;99.90;;;;;;5072042;28;19986;-49
2022/01/23 06:52:41;;;;;;;;;;;-2.00;99.90;;;;;;5072422;28;19989;-48
2022/01/23 06:55:08;;;;;;;;;;;-1.80;99.90;;;;;;5072462;28;19985;-49
2022/01/23 06:57:35;;;;;;;;;;;-1.60;99.90;;;;;;5073042;28;19928;-50
2022/01/23 07:00:04;;;;;;;;;;;-1.60;99.90;;;;;;5073912;28;19924;-49
2022/01/23 07:02:31;;;;;;;;;;;-1.60;99.90;;;;;;5073598;28;19932;-49
2022/01/23 07:04:57;;;;;;;;;;;-1.70;99.90;;;;;;5073920;28;19924;-49
2022/01/23 07:07:24;;;;;;;;;;;-1.60;99.90;;;;;;5074120;28;19928;-49
2022/01/23 07:09:51;;;;;;;;;;;-1.70;99.90;;;;;;5074098;28;20283;-50
2022/01/23 07:12:17;;;;;;;;;;;-1.90;99.90;;;;;;5073982;28;19925;-49
2022/01/23 07:14:44;;;;;;;;;;;-1.90;99.90;;;;;;5073888;28;19929;-48
2022/01/23 07:17:12;;;;;;;;;;;-1.90;99.90;;;;;;5073490;28;19974;-49
2022/01/23 07:19:39;;;;;;;;;;;-1.80;99.90;;;;;;5074004;28;19970;-49
2022/01/23 07:22:06;;;;;;;;;;;-1.70;99.90;;;;;;5073771;28;20364;-49
2022/01/23 07:24:32;;;;;;;;;;;-1.60;99.90;;;;;;5073407;28;20378;-49
2022/01/23 07:27:01;;;;;;;;;;;-1.50;99.90;;;;;;5073773;28;19925;-49
2022/01/23 07:29:28;;;;;;;;;;;-1.50;99.90;;;;;;5069807;28;19932;-50
2022/01/23 07:31:59;;;;;;;;;;;-1.50;99.90;;;;;;5073314;28;20267;-49
2022/01/23 07:34:28;;;;;;;;;;;-1.50;99.90;;;;;;5073787;28;19925;-49
2022/01/23 07:36:54;;;;;;;;;;;-1.40;99.90;;;;;;5073697;28;19929;-48
2022/01/23 07:39:21;;;;;;;;;;;-1.30;99.90;;;;;;5073430;28;19956;-49
2022/01/23 07:41:48;;;;;;;;;;;-1.10;99.90;;;;;;5073469;28;19939;-49
2022/01/23 07:44:15;;;;;;;;;;;-1.20;99.90;;;;;;5073022;28;19928;-48
2022/01/23 07:46:41;;;;;;;;;;;-1.10;99.90;;;;;;5073539;28;19924;-49
2022/01/23 07:49:08;;;;;;;;;;;-0.90;99.90;;;;;;5073367;28;19970;-49
2022/01/23 07:51:36;;;;;;;;;;;-0.70;99.90;;;;;;5073082;28;20394;-49
2022/01/23 07:54:04;;;;;;;;;;;-0.80;99.90;;;;;;5072374;28;19924;-49
2022/01/23 07:56:30;;;;;;;;;;;-0.70;99.90;;;;;;5072143;28;19928;-50
2022/01/23 07:58:58;;;;;;;;;;;-0.50;99.90;;;;;;5072829;28;19924;-49
2022/01/23 08:01:25;;;;;;;;;;;-0.30;99.90;;;;;;5073437;28;19925;-49
2022/01/23 08:03:52;;;;;;;;;;;-0.30;99.90;;;;;;5073676;28;19978;-49
2022/01/23 08:06:21;;;;;;;;;;;-0.20;99.90;;;;;;5073040;28;19925;-50
2022/01/23 08:08:49;;;;;;;;;;;-0.20;99.90;;;;;;5072951;28;19925;-49
2022/01/23 08:11:16;;;;;;;;;;;-0.10;99.90;;;;;;5073119;28;19977;-49
2022/01/23 08:13:42;;;;;;;;;;;-0.10;99.90;;;;;;5073413;28;19924;-50
2022/01/23 08:16:10;;;;;;;;;;;0.00;99.90;;;;;;5072929;28;19924;-49
2022/01/23 08:18:36;;;;;;;;;;;0.10;99.90;;;;;;5073104;28;19925;-49
2022/01/23 08:21:03;;;;;;;;;;;0.20;99.90;;;;;;5073338;28;19924;-49
2022/01/23 08:23:30;;;;;;;;;;;0.20;99.90;;;;;;5073046;28;19924;-49
2022/01/23 08:25:58;;;;;;;;;;;0.30;99.90;;;;;;5073031;28;20456;-50
2022/01/23 08:28:25;;;;;;;;;;;0.10;99.90;;;;;;5072778;28;19924;-49
2022/01/23 08:30:52;;;;;;;;;;;0.30;99.90;;;;;;5073271;28;19994;-49
2022/01/23 08:33:18;;;;;;;;;;;0.40;99.90;;;;;;5063347;28;19929;-49
2022/01/23 08:35:45;;;;;;;;;;;0.30;99.90;;;;;;5052329;28;19925;-50
2022/01/23 08:38:13;;;;;;;;;;;0.60;99.90;;;;;;5052700;28;20354;-48
2022/01/23 08:40:48;;;;;;;;;;;0.80;99.90;;;;;;5052805;28;19932;-49
2022/01/23 08:43:17;;;;;;;;;;;0.90;99.90;;;;;;5068974;28;19975;-50
2022/01/23 08:45:44;;;;;;;;;;;1.20;99.90;;;;;;5072627;28;20440;-50
2022/01/23 08:48:11;;;;;;;;;;;1.60;99.90;;;;;;5071998;28;19924;-48
2022/01/23 08:50:38;;;;;;;;;;;1.50;99.90;;;;;;5072121;28;20451;-50
2022/01/23 08:53:05;;;;;;;;;;;1.80;99.90;;;;;;5072540;28;19928;-48
2022/01/23 08:55:32;;;;;;;;;;;2.40;99.90;;;;;;5071905;28;19978;-50
2022/01/23 08:57:59;;;;;;;;;;;4.00;99.90;;;;;;5067517;28;20019;-49
2022/01/23 09:00:27;;;;;;;;;;;5.60;99.90;;;;;;5070554;28;19978;-47
2022/01/23 09:02:55;;;;;;;;;;;7.10;99.90;;;;;;5067873;28;20410;-47
2022/01/23 09:05:22;;;;;;;;;;;7.00;99.90;;;;;;5051941;28;19924;-47
2022/01/23 09:07:49;;;;;;;;;;;7.50;99.90;;;;;;5069660;28;19933;-47
2022/01/23 09:10:24;;;;;;;;;;;7.40;99.90;;;;;;5071330;28;19936;-48
2022/01/23 09:13:04;;;;;;;;;;;8.70;99.90;;;;;;5072016;28;19924;-47
2022/01/23 09:15:32;;;;;;;;;;;8.70;99.90;;;;;;5071289;28;20361;-48
2022/01/23 09:17:59;;;;;;;;;;;8.80;99.90;;;;;;5071210;28;19955;-47
2022/01/23 09:20:44;;;;;;;;;;;7.80;99.90;;;;;;5069930;28;19978;-49
2022/01/23 09:23:12;;;;;;;;;;;7.40;99.90;;;;;;5051973;28;19929;-48
2022/01/23 09:25:38;;;;;;;;;;;7.90;99.90;;;;;;5062851;28;20338;-47
2022/01/23 09:28:13;;;;;;;;;;;7.80;99.90;;;;;;5066670;28;19925;-47
2022/01/23 09:30:43;;;;;;;;;;;7.70;99.90;;;;;;5052008;28;20019;-47
2022/01/23 09:33:12;;;;;;;;;;;7.50;99.90;;;;;;5071606;28;19924;-47
2022/01/23 09:35:39;;;;;;;;;;;8.00;99.90;;;;;;5071651;28;19928;-46
2022/01/23 09:38:06;;;;;;;;;;;8.70;99.90;;;;;;5071117;28;19925;-47
2022/01/23 09:40:33;;;;;;;;;;;8.70;99.90;;;;;;5071730;28;20287;-47
2022/01/23 09:43:06;;;;;;;;;;;8.60;99.90;;;;;;5071417;28;20426;-47
2022/01/23 09:45:34;;;;;;;;;;;8.80;99.90;;;;;;5071825;28;19924;-47
2022/01/23 09:48:06;;;;;;;;;;;9.10;99.90;;;;;;5071497;28;19925;-48
2022/01/23 09:50:33;;;;;;;;;;;8.80;99.90;;;;;;5071479;28;19954;-48
2022/01/23 09:53:00;;;;;;;;;;;8.70;99.90;;;;;;5071449;28;19925;-47
2022/01/23 09:55:27;;;;;;;;;;;7.90;99.90;;;;;;5071279;28;19928;-47
2022/01/23 09:57:54;;;;;;;;;;;8.00;99.90;;;;;;5071270;28;20050;-47
2022/01/23 10:00:24;;;;;;;;;;;8.50;99.90;;;;;;5071479;28;19925;-47
2022/01/23 10:02:51;;;;;;;;;;;8.50;99.90;;;;;;5071613;28;19946;-47
2022/01/23 10:05:19;;;;;;;;;;;7.80;99.90;;;;;;5071130;28;19924;-47
2022/01/23 10:07:46;;;;;;;;;;;7.20;99.90;;;;;;5071204;28;19933;-48
2022/01/23 10:10:17;;;;;;;;;;;6.70;99.90;;;;;;5070896;28;19924;-47
2022/01/23 10:12:46;;;;;;;;;;;6.60;99.90;;;;;;5071403;28;20034;-49
2022/01/23 10:15:13;;;;;;;;;;;7.10;99.90;;;;;;5071563;28;19970;-47
2022/01/23 10:17:40;;;;;;;;;;;8.50;99.90;;;;;;5070949;28;19977;-47
2022/01/23 10:20:08;;;;;;;;;;;9.90;99.90;;;;;;5071064;28;19925;-47
2022/01/23 10:22:37;;;;;;;;;;;11.20;99.90;;;;;;5078708;28;19924;-47
2022/01/23 10:25:09;;;;;;;;;;;12.30;99.90;;;;;;5089377;28;20198;-48
2022/01/23 10:27:55;;;;;;;;;;;12.40;99.90;;;;;;5073461;28;19932;-47
2022/01/23 10:30:23;;;;;;;;;;;12.40;99.90;;;;;;5071154;28;20309;-48
2022/01/23 10:32:57;;;;;;;;;;;13.50;99.90;;;;;;5075105;28;20057;-47
2022/01/23 10:35:25;;;;;;;;;;;13.20;99.90;;;;;;5083721;28;20015;-47
2022/01/23 10:37:55;;;;;;;;;;;14.00;98.90;;;;;;5091270;28;20010;-48
2022/01/23 10:40:28;;;;;;;;;;;14.00;97.60;;;;;;5050907;28;20355;-48
2022/01/23 10:46:35;;;;;;;;;;;12.80;98.80;;;;;;5054082;28;19990;-47
2022/01/23 10:48:37;;;;;;;;;;;12.30;99.60;;;;;;5067321;28;20416;-48
2022/01/23 10:51:14;;;;;;;;;;;12.30;98.80;;;;;;5070898;28;19978;-47
2022/01/23 10:56:39;;;;;;;;;;;9.30;99.90;;;;;;5130035;27;19918;-47
2022/01/23 10:59:07;;;;;;;;;;;7.60;99.90;;;;;;5124506;27;19932;-47
2022/01/23 11:01:34;;;;;;;;;;;6.80;99.90;;;;;;5124825;28;19924;-48
2022/01/23 11:04:08;;;;;;;;;;;6.30;99.90;;;;;;5132676;22;19981;-50
2022/01/23 11:06:50;;;;;;;;;;;6.20;99.90;;;;;;5105397;28;19928;-50
2022/01/23 11:09:17;;;;;;;;;;;5.80;99.90;;;;;;5103725;28;20552;-51
2022/01/23 11:11:48;;;;;;;;;;;5.90;99.90;;;;;;5104762;28;19989;-51
2022/01/23 11:19:46;;;;;;;;;;;5.70;99.90;;;;;;5087998;28;20049;-50
2022/01/23 11:22:16;;;;;;;;;;;5.60;99.90;;;;;;5091438;28;19928;-50
2022/01/23 11:24:45;;;;;;;;;;;5.70;99.90;;;;;;5092182;28;19924;-51
2022/01/23 11:27:13;;;;;;;;;;;5.70;99.90;;;;;;5090823;28;19924;-51
2022/01/23 11:29:53;;;;;;;;;;;5.90;99.90;;;;;;5087830;28;19928;-50
2022/01/23 11:32:21;;;;;;;;;;;6.00;99.90;;;;;;5087802;28;20461;-51
2022/01/23 11:34:48;;;;;;;;;;;5.90;99.90;;;;;;5087196;28;19924;-51
2022/01/23 11:37:16;;;;;;;;;;;5.80;99.90;;;;;;5095195;28;19932;-51
2022/01/23 11:39:48;;;;;;;;;;;5.80;99.90;;;;;;5094026;28;19924;-50
2022/01/23 11:51:04;;;;;;;;;;;6.30;99.90;;;;;;5084101;28;19970;-51
2022/01/23 11:53:49;;;;;;;;;;;6.00;99.90;;;;;;5089211;28;20019;-50
2022/01/23 11:56:37;;;;;;;;;;;6.00;99.90;;;;;;5095728;28;19932;-50
2022/01/23 11:59:24;;;;;;;;;;;6.00;99.90;;;;;;5078550;28;19932;-51
2022/01/23 12:02:05;;;;;;;;;;;6.10;99.90;;;;;;5086325;28;19928;-50
2022/01/23 12:04:34;;;;;;;;;;;6.00;99.90;;;;;;5094673;28;19924;-50
2022/01/23 12:07:20;;;;;;;;;;;6.10;99.90;;;;;;5082244;28;20394;-50
2022/01/23 12:10:01;;;;;;;;;;;6.10;99.90;;;;;;5072728;28;20321;-50
2022/01/23 12:12:37;;;;;;;;;;;6.10;99.90;;;;;;5062869;28;20401;-51
2022/01/23 12:18:11;;;;;;;;;;;5.90;99.90;;;;;;5122321;27;19915;-51
2022/01/23 12:20:39;;;;;;;;;;;5.70;99.90;;;;;;5123854;28;19932;-51
2022/01/23 12:23:10;;;;;;;;;;;5.60;99.90;;;;;;5109864;28;19928;-52
2022/01/23 12:25:41;;;;;;;;;;;5.60;99.90;;;;;;5106280;28;19924;-51
2022/01/23 12:28:17;;;;;;;;;;;5.90;99.90;;;;;;5102703;28;19932;-51
2022/01/23 12:30:45;;;;;;;;;;;6.10;99.90;;;;;;5103892;28;20431;-51
2022/01/23 12:33:15;;;;;;;;;;;6.20;99.90;;;;;;5098280;28;19992;-51
2022/01/23 12:35:44;;;;;;;;;;;6.30;99.90;;;;;;5102268;28;19923;-51
2022/01/23 12:38:13;;;;;;;;;;;6.40;99.90;;;;;;5097103;28;20406;-51
2022/01/23 12:40:43;;;;;;;;;;;6.30;99.90;;;;;;5096102;28;20789;-51
2022/01/23 12:43:12;;;;;;;;;;;6.30;99.90;;;;;;5094840;28;19928;-51
2022/01/23 12:45:49;;;;;;;;;;;6.20;99.90;;;;;;5094159;28;19928;-51
2022/01/23 12:48:36;;;;;;;;;;;6.20;99.90;;;;;;5097120;28;19938;-51
2022/01/23 12:51:06;;;;;;;;;;;6.10;99.90;;;;;;5095376;28;19924;-51
2022/01/23 12:53:36;;;;;;;;;;;6.20;99.90;;;;;;5097721;28;19928;-51
2022/01/23 12:56:04;;;;;;;;;;;6.20;99.90;;;;;;5091300;28;19924;-51
2022/01/23 12:58:32;;;;;;;;;;;6.20;99.90;;;;;;5096470;28;20305;-50
2022/01/23 13:00:59;;;;;;;;;;;6.40;99.90;;;;;;5094801;28;20001;-51
2022/01/23 13:03:27;;;;;;;;;;;6.40;99.90;;;;;;5092629;28;19932;-51
2022/01/23 13:05:54;;;;;;;;;;;6.20;99.90;;;;;;5091755;28;19930;-51
2022/01/23 13:08:26;;;;;;;;;;;6.10;99.90;;;;;;5092032;28;20027;-51
2022/01/23 13:11:19;;;;;;;;;;;6.10;99.90;;;;;;5095258;28;19934;-51
2022/01/23 13:13:52;;;;;;;;;;;6.20;99.90;;;;;;5095088;28;20324;-50
2022/01/23 13:16:29;;;;;;;;;;;6.10;99.90;;;;;;5095258;28;19939;-51
2022/01/23 13:30:13;;;;;;;;;;;6.00;99.90;;;;;;5075659;28;20072;-51
2022/01/23 13:32:44;;;;;;;;;;;6.00;99.90;;;;;;5084981;28;19932;-51
2022/01/23 13:35:14;;;;;;;;;;;6.00;99.90;;;;;;5081680;28;20088;-51
2022/01/23 13:37:42;;;;;;;;;;;6.00;99.90;;;;;;5080533;28;19927;-50
2022/01/23 13:40:13;;;;;;;;;;;6.10;99.90;;;;;;5077746;28;19951;-52
2022/01/23 13:47:51;;;;;;;;;;;6.00;99.90;;;;;;5101960;28;19978;-51
2022/01/23 13:51:30;;;;;;;;;;;5.90;99.90;;;;;;5060355;28;19928;-51
2022/01/23 13:54:19;;;;;;;;;;;5.70;99.90;;;;;;5087534;28;19928;-51
2022/01/23 13:59:37;;;;;;;;;;;5.70;99.90;;;;;;5088885;28;20463;-52
2022/01/23 14:02:16;;;;;;;;;;;5.70;99.90;;;;;;5089071;28;19931;-51
2022/01/23 14:04:44;;;;;;;;;;;5.60;99.90;;;;;;5090243;28;19928;-51
2022/01/23 14:07:11;;;;;;;;;;;5.60;99.90;;;;;;5089860;28;19924;-51
2022/01/23 14:09:39;;;;;;;;;;;5.50;99.90;;;;;;5086883;28;19977;-51
2022/01/23 14:12:11;;;;;;;;;;;5.60;99.90;;;;;;5086633;28;19970;-51
2022/01/23 14:14:48;;;;;;;;;;;5.50;99.90;;;;;;5086340;28;19928;-52
2022/01/23 14:17:15;;;;;;;;;;;5.50;99.90;;;;;;5094027;28;19924;-51
2022/01/23 14:19:55;;;;;;;;;;;5.40;99.90;;;;;;5081037;28;19925;-51
2022/01/23 14:22:26;;;;;;;;;;;5.30;99.90;;;;;;5091864;28;19924;-56
2022/01/23 14:24:53;;;;;;;;;;;5.40;99.90;;;;;;5083331;28;19927;-51
2022/01/23 14:27:21;;;;;;;;;;;5.40;99.90;;;;;;5090479;28;19928;-51
2022/01/23 14:29:49;;;;;;;;;;;5.30;99.90;;;;;;5090789;28;19935;-51
2022/01/23 14:32:21;;;;;;;;;;;5.30;99.90;;;;;;5087154;28;19925;-51
2022/01/23 14:34:47;;;;;;;;;;;5.30;99.90;;;;;;5082115;28;19967;-51
2022/01/23 14:37:14;;;;;;;;;;;5.30;99.90;;;;;;5086912;28;20443;-51
2022/01/23 14:39:41;;;;;;;;;;;5.20;99.90;;;;;;5079946;28;19996;-51
2022/01/23 14:42:13;;;;;;;;;;;5.10;99.90;;;;;;5084622;28;19932;-51
2022/01/23 14:44:42;;;;;;;;;;;5.10;99.90;;;;;;5080266;28;20049;-51
2022/01/23 14:47:09;;;;;;;;;;;5.20;99.90;;;;;;5078248;28;19940;-51
2022/01/23 14:49:37;;;;;;;;;;;5.00;99.90;;;;;;5079662;28;19932;-51
2022/01/23 14:52:09;;;;;;;;;;;5.10;99.90;;;;;;5078473;28;19932;-51
2022/01/23 14:54:36;;;;;;;;;;;5.00;99.90;;;;;;5084460;28;19931;-51
2022/01/23 14:57:03;;;;;;;;;;;5.10;99.90;;;;;;5077522;28;19925;-51
2022/01/23 14:59:31;;;;;;;;;;;4.90;99.90;;;;;;5078991;28;19932;-51
2022/01/23 15:02:00;;;;;;;;;;;4.90;99.90;;;;;;5082177;28;19985;-51
2022/01/23 15:04:26;;;;;;;;;;;4.90;99.90;;;;;;5078681;28;19925;-51
2022/01/23 15:06:54;;;;;;;;;;;4.90;99.90;;;;;;5076409;28;19924;-51
2022/01/23 15:09:22;;;;;;;;;;;4.90;99.90;;;;;;5075517;28;19928;-51
2022/01/23 15:11:50;;;;;;;;;;;4.90;99.90;;;;;;5078606;28;19928;-51
2022/01/23 15:14:18;;;;;;;;;;;4.80;99.90;;;;;;5079960;28;20048;-51
2022/01/23 15:16:45;;;;;;;;;;;4.80;99.90;;;;;;5074369;28;19959;-51
2022/01/23 15:19:13;;;;;;;;;;;4.70;99.90;;;;;;5078870;28;19924;-51
2022/01/23 15:21:40;;;;;;;;;;;4.60;99.90;;;;;;5083037;28;20368;-51
2022/01/23 15:24:07;;;;;;;;;;;4.60;99.90;;;;;;5092777;28;19924;-51
2022/01/23 15:26:36;;;;;;;;;;;4.60;99.90;;;;;;5086449;28;19932;-51
2022/01/23 15:29:03;;;;;;;;;;;4.60;99.90;;;;;;5079293;28;19928;-51
2022/01/23 15:31:29;;;;;;;;;;;4.50;99.90;;;;;;5081818;28;19981;-51
2022/01/23 15:33:56;;;;;;;;;;;4.50;99.90;;;;;;5076849;28;20394;-51
2022/01/23 15:36:24;;;;;;;;;;;4.40;99.90;;;;;;5077849;28;19984;-52
2022/01/23 15:38:51;;;;;;;;;;;4.30;99.90;;;;;;5077434;28;19924;-51
2022/01/23 15:41:18;;;;;;;;;;;4.30;99.90;;;;;;5080212;28;19932;-51
2022/01/23 15:43:45;;;;;;;;;;;4.20;99.90;;;;;;5078061;28;19928;-51
2022/01/23 15:46:13;;;;;;;;;;;4.10;99.90;;;;;;5078830;28;20043;-51
2022/01/23 15:48:40;;;;;;;;;;;4.10;99.90;;;;;;5080621;28;19978;-51
2022/01/23 15:51:07;;;;;;;;;;;4.00;99.90;;;;;;5078621;28;19928;-51
2022/01/23 15:53:35;;;;;;;;;;;3.90;99.90;;;;;;5076241;28;19947;-51
2022/01/23 15:56:02;;;;;;;;;;;3.80;99.90;;;;;;5079248;28;19924;-51
2022/01/23 15:58:29;;;;;;;;;;;3.70;99.90;;;;;;5079419;28;19928;-51
2022/01/23 16:00:56;;;;;;;;;;;3.50;99.90;;;;;;5076439;28;19928;-51
2022/01/23 16:03:25;;;;;;;;;;;3.50;99.90;;;;;;5079439;28;21728;-51
2022/01/23 16:05:52;;;;;;;;;;;3.20;99.90;;;;;;5077894;28;19932;-51
2022/01/23 16:08:19;;;;;;;;;;;3.00;99.90;;;;;;5076542;28;19985;-51
2022/01/23 16:10:47;;;;;;;;;;;2.80;99.90;;;;;;5075559;28;20467;-51
2022/01/23 16:13:14;;;;;;;;;;;2.70;99.90;;;;;;5074893;28;19970;-51
2022/01/23 16:15:43;;;;;;;;;;;2.50;99.90;;;;;;5078545;28;19939;-51
2022/01/23 16:18:10;;;;;;;;;;;2.30;99.90;;;;;;5078834;28;20436;-51
2022/01/23 16:20:38;;;;;;;;;;;2.20;99.90;;;;;;5081019;28;19925;-51
2022/01/23 16:23:04;;;;;;;;;;;2.10;99.90;;;;;;5083656;28;19940;-51
2022/01/23 16:25:31;;;;;;;;;;;2.00;99.90;;;;;;5084165;28;19924;-51
2022/01/23 16:27:59;;;;;;;;;;;1.90;99.90;;;;;;5076860;28;19982;-50
2022/01/23 16:30:41;;;;;;;;;;;1.80;99.90;;;;;;5082974;28;19985;-51
2022/01/23 16:33:08;;;;;;;;;;;1.70;99.90;;;;;;5077052;28;19928;-50
2022/01/23 16:35:34;;;;;;;;;;;1.70;99.90;;;;;;5075523;28;19924;-51
2022/01/23 16:38:01;;;;;;;;;;;1.70;99.90;;;;;;5075767;28;19929;-51
2022/01/23 16:40:28;;;;;;;;;;;1.60;99.90;;;;;;5078544;28;19950;-51
2022/01/23 16:42:55;;;;;;;;;;;1.60;99.90;;;;;;5078660;28;20409;-51
2022/01/23 16:45:23;;;;;;;;;;;1.50;99.90;;;;;;5085220;28;19928;-51
2022/01/23 16:47:50;;;;;;;;;;;1.50;99.90;;;;;;5074975;28;19932;-51
2022/01/23 16:50:17;;;;;;;;;;;1.50;99.90;;;;;;5083033;28;19928;-51
2022/01/23 16:52:44;;;;;;;;;;;1.60;99.90;;;;;;5091196;28;19969;-51
2022/01/23 16:55:11;;;;;;;;;;;1.50;99.90;;;;;;5090718;28;19924;-51
2022/01/23 16:57:38;;;;;;;;;;;1.80;99.90;;;;;;5087884;28;19978;-51
2022/01/23 17:00:07;;;;;;;;;;;2.00;99.90;;;;;;5091370;28;19932;-51
2022/01/23 17:02:35;;;;;;;;;;;2.30;99.90;;;;;;5076462;28;20275;-51
2022/01/23 17:05:01;;;;;;;;;;;2.20;99.90;;;;;;5105725;22;19924;-48